sensor_id;sensor_type;location;lat;lon;timestamp;P1;durP1;ratioP1;P2;durP2;ratioP2
819;SDS011;392;48.838;2.322;2023-03-16T00:02:22;4.77;;;3.43;;
819;SDS011;392;48.838;2.322;2023-03-16T00:04:49;3.47;;;3.17;;
819;SDS011;392;48.838;2.322;2023-03-16T00:07:17;5.80;;;3.63;;
819;SDS011;392;48.838;2.322;2023-03-16T00:09:46;3.47;;;3.10;;
819;SDS011;392;48.838;2.322;2023-03-16T00:12:15;3.87;;;3.40;;
819;SDS011;392;48.838;2.322;2023-03-16T00:14:44;3.90;;;3.63;;
819;SDS011;392;48.838;2.322;2023-03-16T00:17:16;4.30;;;3.93;;
819;SDS011;392;48.838;2.322;2023-03-16T00:19:45;3.93;;;3.53;;
819;SDS011;392;48.838;2.322;2023-03-16T00:22:13;3.90;;;3.70;;
819;SDS011;392;48.838;2.322;2023-03-16T00:24:41;3.93;;;3.53;;
819;SDS011;392;48.838;2.322;2023-03-16T00:27:09;4.53;;;4.23;;
819;SDS011;392;48.838;2.322;2023-03-16T00:29:39;4.13;;;3.80;;
819;SDS011;392;48.838;2.322;2023-03-16T00:32:17;4.53;;;4.13;;
819;SDS011;392;48.838;2.322;2023-03-16T00:34:47;4.80;;;4.30;;
819;SDS011;392;48.838;2.322;2023-03-16T00:37:16;4.50;;;4.13;;
819;SDS011;392;48.838;2.322;2023-03-16T00:39:45;5.80;;;3.67;;
819;SDS011;392;48.838;2.322;2023-03-16T00:42:13;4.90;;;4.20;;
819;SDS011;392;48.838;2.322;2023-03-16T00:44:42;5.00;;;4.60;;
819;SDS011;392;48.838;2.322;2023-03-16T00:47:10;4.70;;;4.27;;
819;SDS011;392;48.838;2.322;2023-03-16T00:49:41;6.77;;;4.40;;
819;SDS011;392;48.838;2.322;2023-03-16T00:52:10;5.70;;;4.30;;
819;SDS011;392;48.838;2.322;2023-03-16T00:54:39;6.37;;;4.60;;
819;SDS011;392;48.838;2.322;2023-03-16T00:57:09;4.30;;;3.90;;
819;SDS011;392;48.838;2.322;2023-03-16T00:59:38;4.20;;;3.80;;
819;SDS011;392;48.838;2.322;2023-03-16T01:02:07;4.70;;;4.30;;
819;SDS011;392;48.838;2.322;2023-03-16T01:04:35;4.50;;;3.87;;
819;SDS011;392;48.838;2.322;2023-03-16T01:07:06;5.47;;;4.17;;
819;SDS011;392;48.838;2.322;2023-03-16T01:09:35;5.20;;;4.17;;
819;SDS011;392;48.838;2.322;2023-03-16T01:12:02;4.10;;;3.80;;
819;SDS011;392;48.838;2.322;2023-03-16T01:14:31;4.60;;;4.20;;
819;SDS011;392;48.838;2.322;2023-03-16T01:16:59;4.80;;;4.40;;
819;SDS011;392;48.838;2.322;2023-03-16T01:19:27;4.80;;;3.73;;
819;SDS011;392;48.838;2.322;2023-03-16T01:21:58;4.83;;;4.47;;
819;SDS011;392;48.838;2.322;2023-03-16T01:24:27;8.40;;;4.30;;
819;SDS011;392;48.838;2.322;2023-03-16T01:26:55;5.70;;;4.00;;
819;SDS011;392;48.838;2.322;2023-03-16T01:29:23;4.93;;;4.40;;
819;SDS011;392;48.838;2.322;2023-03-16T01:31:51;5.17;;;4.70;;
819;SDS011;392;48.838;2.322;2023-03-16T01:34:20;4.83;;;4.37;;
819;SDS011;392;48.838;2.322;2023-03-16T01:36:48;5.17;;;4.77;;
819;SDS011;392;48.838;2.322;2023-03-16T01:39:25;5.20;;;4.07;;
819;SDS011;392;48.838;2.322;2023-03-16T01:41:54;4.17;;;3.87;;
819;SDS011;392;48.838;2.322;2023-03-16T01:44:23;4.50;;;3.90;;
819;SDS011;392;48.838;2.322;2023-03-16T01:47:01;4.10;;;3.70;;
819;SDS011;392;48.838;2.322;2023-03-16T01:49:30;5.40;;;3.97;;
819;SDS011;392;48.838;2.322;2023-03-16T01:52:02;4.70;;;4.30;;
819;SDS011;392;48.838;2.322;2023-03-16T01:54:36;5.30;;;4.20;;
819;SDS011;392;48.838;2.322;2023-03-16T01:57:11;4.40;;;4.00;;
819;SDS011;392;48.838;2.322;2023-03-16T01:59:43;5.67;;;5.07;;
819;SDS011;392;48.838;2.322;2023-03-16T02:02:15;5.50;;;4.40;;
819;SDS011;392;48.838;2.322;2023-03-16T02:04:48;5.20;;;4.13;;
819;SDS011;392;48.838;2.322;2023-03-16T02:07:22;5.53;;;5.03;;
819;SDS011;392;48.838;2.322;2023-03-16T02:09:55;4.80;;;4.23;;
819;SDS011;392;48.838;2.322;2023-03-16T02:12:27;4.30;;;3.90;;
819;SDS011;392;48.838;2.322;2023-03-16T02:14:56;4.23;;;3.83;;
819;SDS011;392;48.838;2.322;2023-03-16T02:17:25;5.90;;;4.27;;
819;SDS011;392;48.838;2.322;2023-03-16T02:20:03;4.57;;;4.17;;
819;SDS011;392;48.838;2.322;2023-03-16T02:22:43;4.23;;;3.90;;
819;SDS011;392;48.838;2.322;2023-03-16T02:25:15;5.73;;;4.30;;
819;SDS011;392;48.838;2.322;2023-03-16T02:27:45;4.27;;;3.90;;
819;SDS011;392;48.838;2.322;2023-03-16T02:30:23;4.50;;;4.07;;
819;SDS011;392;48.838;2.322;2023-03-16T02:32:57;4.23;;;3.90;;
819;SDS011;392;48.838;2.322;2023-03-16T02:35:25;5.00;;;4.03;;
819;SDS011;392;48.838;2.322;2023-03-16T02:37:53;4.53;;;4.13;;
819;SDS011;392;48.838;2.322;2023-03-16T02:40:27;5.40;;;4.20;;
819;SDS011;392;48.838;2.322;2023-03-16T02:43:02;4.30;;;3.90;;
819;SDS011;392;48.838;2.322;2023-03-16T02:45:39;4.27;;;3.67;;
819;SDS011;392;48.838;2.322;2023-03-16T02:48:11;5.63;;;3.63;;
819;SDS011;392;48.838;2.322;2023-03-16T02:50:47;4.83;;;4.43;;
819;SDS011;392;48.838;2.322;2023-03-16T02:53:18;4.40;;;4.00;;
819;SDS011;392;48.838;2.322;2023-03-16T02:55:46;4.40;;;4.03;;
819;SDS011;392;48.838;2.322;2023-03-16T02:58:14;4.40;;;4.00;;
819;SDS011;392;48.838;2.322;2023-03-16T03:00:43;4.30;;;3.90;;
819;SDS011;392;48.838;2.322;2023-03-16T03:03:13;4.50;;;4.10;;
819;SDS011;392;48.838;2.322;2023-03-16T03:05:41;4.27;;;3.87;;
819;SDS011;392;48.838;2.322;2023-03-16T03:08:09;5.93;;;3.87;;
819;SDS011;392;48.838;2.322;2023-03-16T03:10:38;4.30;;;3.90;;
819;SDS011;392;48.838;2.322;2023-03-16T03:13:05;3.77;;;3.50;;
819;SDS011;392;48.838;2.322;2023-03-16T03:15:33;3.53;;;3.23;;
819;SDS011;392;48.838;2.322;2023-03-16T03:18:08;3.70;;;3.40;;
819;SDS011;392;48.838;2.322;2023-03-16T03:20:36;3.60;;;3.40;;
819;SDS011;392;48.838;2.322;2023-03-16T03:23:03;4.93;;;4.53;;
819;SDS011;392;48.838;2.322;2023-03-16T03:25:32;3.87;;;3.60;;
819;SDS011;392;48.838;2.322;2023-03-16T03:28:01;4.93;;;3.17;;
819;SDS011;392;48.838;2.322;2023-03-16T03:30:31;4.17;;;3.77;;
819;SDS011;392;48.838;2.322;2023-03-16T03:32:59;4.40;;;4.00;;
819;SDS011;392;48.838;2.322;2023-03-16T03:35:29;4.10;;;3.80;;
819;SDS011;392;48.838;2.322;2023-03-16T03:37:57;4.37;;;4.07;;
819;SDS011;392;48.838;2.322;2023-03-16T03:40:25;3.20;;;2.93;;
819;SDS011;392;48.838;2.322;2023-03-16T03:42:59;3.50;;;3.20;;
819;SDS011;392;48.838;2.322;2023-03-16T03:45:28;4.50;;;3.57;;
819;SDS011;392;48.838;2.322;2023-03-16T03:47:56;4.33;;;4.00;;
819;SDS011;392;48.838;2.322;2023-03-16T03:50:23;3.53;;;3.33;;
819;SDS011;392;48.838;2.322;2023-03-16T03:53:19;4.00;;;3.70;;
819;SDS011;392;48.838;2.322;2023-03-16T03:56:05;3.47;;;3.27;;
819;SDS011;392;48.838;2.322;2023-03-16T03:58:33;3.70;;;3.50;;
819;SDS011;392;48.838;2.322;2023-03-16T04:01:01;3.67;;;3.47;;
819;SDS011;392;48.838;2.322;2023-03-16T04:03:30;3.40;;;3.20;;
819;SDS011;392;48.838;2.322;2023-03-16T04:05:58;3.60;;;3.30;;
819;SDS011;392;48.838;2.322;2023-03-16T04:08:28;4.07;;;3.77;;
819;SDS011;392;48.838;2.322;2023-03-16T04:10:56;5.00;;;4.23;;
819;SDS011;392;48.838;2.322;2023-03-16T04:13:24;3.93;;;3.63;;
819;SDS011;392;48.838;2.322;2023-03-16T04:15:54;4.53;;;3.83;;
819;SDS011;392;48.838;2.322;2023-03-16T04:18:26;3.63;;;3.27;;
819;SDS011;392;48.838;2.322;2023-03-16T04:20:54;3.80;;;3.50;;
819;SDS011;392;48.838;2.322;2023-03-16T04:23:23;3.70;;;3.47;;
819;SDS011;392;48.838;2.322;2023-03-16T04:25:52;3.40;;;3.20;;
819;SDS011;392;48.838;2.322;2023-03-16T04:28:21;3.23;;;2.90;;
819;SDS011;392;48.838;2.322;2023-03-16T04:30:51;3.60;;;3.10;;
819;SDS011;392;48.838;2.322;2023-03-16T04:33:30;3.60;;;3.30;;
819;SDS011;392;48.838;2.322;2023-03-16T04:35:58;3.23;;;3.03;;
819;SDS011;392;48.838;2.322;2023-03-16T04:38:27;3.77;;;3.50;;
819;SDS011;392;48.838;2.322;2023-03-16T04:40:59;4.03;;;3.33;;
819;SDS011;392;48.838;2.322;2023-03-16T04:43:32;3.83;;;3.00;;
819;SDS011;392;48.838;2.322;2023-03-16T04:46:07;4.20;;;3.03;;
819;SDS011;392;48.838;2.322;2023-03-16T04:48:34;3.40;;;3.20;;
819;SDS011;392;48.838;2.322;2023-03-16T04:51:04;3.07;;;2.87;;
819;SDS011;392;48.838;2.322;2023-03-16T04:53:36;3.40;;;3.10;;
819;SDS011;392;48.838;2.322;2023-03-16T04:56:12;3.60;;;3.30;;
819;SDS011;392;48.838;2.322;2023-03-16T04:58:45;3.23;;;3.03;;
819;SDS011;392;48.838;2.322;2023-03-16T05:01:15;3.37;;;3.17;;
819;SDS011;392;48.838;2.322;2023-03-16T05:03:44;3.03;;;2.73;;
819;SDS011;392;48.838;2.322;2023-03-16T05:06:11;3.30;;;3.00;;
819;SDS011;392;48.838;2.322;2023-03-16T05:08:40;2.57;;;2.43;;
819;SDS011;392;48.838;2.322;2023-03-16T05:11:07;3.03;;;2.83;;
819;SDS011;392;48.838;2.322;2023-03-16T05:13:42;2.97;;;2.77;;
819;SDS011;392;48.838;2.322;2023-03-16T05:16:10;2.70;;;2.50;;
819;SDS011;392;48.838;2.322;2023-03-16T05:18:39;4.80;;;3.20;;
819;SDS011;392;48.838;2.322;2023-03-16T05:21:06;3.20;;;2.90;;
819;SDS011;392;48.838;2.322;2023-03-16T05:23:47;3.17;;;2.80;;
819;SDS011;392;48.838;2.322;2023-03-16T05:26:16;3.10;;;2.90;;
819;SDS011;392;48.838;2.322;2023-03-16T05:28:45;2.70;;;2.60;;
819;SDS011;392;48.838;2.322;2023-03-16T05:31:15;2.87;;;2.67;;
819;SDS011;392;48.838;2.322;2023-03-16T05:33:48;3.40;;;3.10;;
819;SDS011;392;48.838;2.322;2023-03-16T05:36:18;3.00;;;2.77;;
819;SDS011;392;48.838;2.322;2023-03-16T05:38:48;2.53;;;2.37;;
819;SDS011;392;48.838;2.322;2023-03-16T05:41:34;3.13;;;2.47;;
819;SDS011;392;48.838;2.322;2023-03-16T05:44:18;2.83;;;2.70;;
819;SDS011;392;48.838;2.322;2023-03-16T05:47:03;3.30;;;3.00;;
819;SDS011;392;48.838;2.322;2023-03-16T05:49:34;3.00;;;2.63;;
819;SDS011;392;48.838;2.322;2023-03-16T05:52:06;2.60;;;2.40;;
819;SDS011;392;48.838;2.322;2023-03-16T05:54:34;3.47;;;3.13;;
819;SDS011;392;48.838;2.322;2023-03-16T05:57:02;2.77;;;2.57;;
819;SDS011;392;48.838;2.322;2023-03-16T05:59:32;3.17;;;2.70;;
819;SDS011;392;48.838;2.322;2023-03-16T06:02:01;3.10;;;2.80;;
819;SDS011;392;48.838;2.322;2023-03-16T06:04:29;2.80;;;2.60;;
819;SDS011;392;48.838;2.322;2023-03-16T06:06:58;2.60;;;2.43;;
819;SDS011;392;48.838;2.322;2023-03-16T06:09:27;3.33;;;2.77;;
819;SDS011;392;48.838;2.322;2023-03-16T06:11:55;3.53;;;2.90;;
819;SDS011;392;48.838;2.322;2023-03-16T06:14:22;2.80;;;2.60;;
819;SDS011;392;48.838;2.322;2023-03-16T06:16:52;3.13;;;2.60;;
819;SDS011;392;48.838;2.322;2023-03-16T06:19:20;2.87;;;2.67;;
819;SDS011;392;48.838;2.322;2023-03-16T06:21:53;4.77;;;2.80;;
819;SDS011;392;48.838;2.322;2023-03-16T06:24:20;2.40;;;2.30;;
819;SDS011;392;48.838;2.322;2023-03-16T06:26:49;2.70;;;2.50;;
819;SDS011;392;48.838;2.322;2023-03-16T06:29:18;2.40;;;2.27;;
819;SDS011;392;48.838;2.322;2023-03-16T06:31:45;2.93;;;2.73;;
819;SDS011;392;48.838;2.322;2023-03-16T06:34:17;2.67;;;2.33;;
819;SDS011;392;48.838;2.322;2023-03-16T06:36:44;3.10;;;2.90;;
819;SDS011;392;48.838;2.322;2023-03-16T06:39:12;2.43;;;2.33;;
819;SDS011;392;48.838;2.322;2023-03-16T06:41:41;2.50;;;2.40;;
819;SDS011;392;48.838;2.322;2023-03-16T06:44:11;2.17;;;2.07;;
819;SDS011;392;48.838;2.322;2023-03-16T06:46:48;2.87;;;2.67;;
819;SDS011;392;48.838;2.322;2023-03-16T06:49:17;2.40;;;2.20;;
819;SDS011;392;48.838;2.322;2023-03-16T06:51:45;2.20;;;2.10;;
819;SDS011;392;48.838;2.322;2023-03-16T06:54:12;2.27;;;2.17;;
819;SDS011;392;48.838;2.322;2023-03-16T06:56:40;2.30;;;2.10;;
819;SDS011;392;48.838;2.322;2023-03-16T06:59:07;2.30;;;2.17;;
819;SDS011;392;48.838;2.322;2023-03-16T07:01:36;1.83;;;1.70;;
819;SDS011;392;48.838;2.322;2023-03-16T07:04:03;2.10;;;2.00;;
819;SDS011;392;48.838;2.322;2023-03-16T07:06:34;2.30;;;2.20;;
819;SDS011;392;48.838;2.322;2023-03-16T07:09:01;1.87;;;1.70;;
819;SDS011;392;48.838;2.322;2023-03-16T07:11:30;2.33;;;2.23;;
819;SDS011;392;48.838;2.322;2023-03-16T07:13:57;2.60;;;2.40;;
819;SDS011;392;48.838;2.322;2023-03-16T07:16:27;2.60;;;2.40;;
819;SDS011;392;48.838;2.322;2023-03-16T07:18:57;4.17;;;2.57;;
819;SDS011;392;48.838;2.322;2023-03-16T07:21:24;2.40;;;2.20;;
819;SDS011;392;48.838;2.322;2023-03-16T07:23:53;2.03;;;1.90;;
819;SDS011;392;48.838;2.322;2023-03-16T07:26:26;2.50;;;2.30;;
819;SDS011;392;48.838;2.322;2023-03-16T07:28:57;2.83;;;2.60;;
819;SDS011;392;48.838;2.322;2023-03-16T07:31:24;2.57;;;2.37;;
819;SDS011;392;48.838;2.322;2023-03-16T07:33:54;3.27;;;2.90;;
819;SDS011;392;48.838;2.322;2023-03-16T07:36:31;2.00;;;1.80;;
819;SDS011;392;48.838;2.322;2023-03-16T07:39:01;2.17;;;1.93;;
819;SDS011;392;48.838;2.322;2023-03-16T07:41:30;5.50;;;2.30;;
819;SDS011;392;48.838;2.322;2023-03-16T07:44:12;2.93;;;2.60;;
819;SDS011;392;48.838;2.322;2023-03-16T07:46:39;2.50;;;1.90;;
819;SDS011;392;48.838;2.322;2023-03-16T07:49:07;2.73;;;1.63;;
819;SDS011;392;48.838;2.322;2023-03-16T07:51:37;2.87;;;2.20;;
819;SDS011;392;48.838;2.322;2023-03-16T07:54:08;2.63;;;2.40;;
819;SDS011;392;48.838;2.322;2023-03-16T07:56:35;2.53;;;2.43;;
819;SDS011;392;48.838;2.322;2023-03-16T07:59:03;1.70;;;1.60;;
819;SDS011;392;48.838;2.322;2023-03-16T08:01:30;5.73;;;2.53;;
819;SDS011;392;48.838;2.322;2023-03-16T08:03:58;3.37;;;2.63;;
819;SDS011;392;48.838;2.322;2023-03-16T08:06:26;1.90;;;1.80;;
819;SDS011;392;48.838;2.322;2023-03-16T08:08:54;3.43;;;2.10;;
819;SDS011;392;48.838;2.322;2023-03-16T08:11:29;3.60;;;2.37;;
819;SDS011;392;48.838;2.322;2023-03-16T08:14:00;2.57;;;2.37;;
819;SDS011;392;48.838;2.322;2023-03-16T08:16:48;2.47;;;2.00;;
819;SDS011;392;48.838;2.322;2023-03-16T08:19:17;2.30;;;2.00;;
819;SDS011;392;48.838;2.322;2023-03-16T08:21:46;3.30;;;2.03;;
819;SDS011;392;48.838;2.322;2023-03-16T08:24:13;2.50;;;2.30;;
819;SDS011;392;48.838;2.322;2023-03-16T08:26:42;2.70;;;2.37;;
819;SDS011;392;48.838;2.322;2023-03-16T08:29:10;3.40;;;2.73;;
819;SDS011;392;48.838;2.322;2023-03-16T08:31:37;2.60;;;2.43;;
819;SDS011;392;48.838;2.322;2023-03-16T08:34:11;2.50;;;2.30;;
819;SDS011;392;48.838;2.322;2023-03-16T08:36:42;2.03;;;1.90;;
819;SDS011;392;48.838;2.322;2023-03-16T08:39:11;3.27;;;2.20;;
819;SDS011;392;48.838;2.322;2023-03-16T08:41:44;2.70;;;1.90;;
819;SDS011;392;48.838;2.322;2023-03-16T08:44:22;2.63;;;2.50;;
819;SDS011;392;48.838;2.322;2023-03-16T08:46:50;4.80;;;2.53;;
819;SDS011;392;48.838;2.322;2023-03-16T08:49:19;3.07;;;2.37;;
819;SDS011;392;48.838;2.322;2023-03-16T08:51:53;4.43;;;2.40;;
819;SDS011;392;48.838;2.322;2023-03-16T08:54:20;2.47;;;2.27;;
819;SDS011;392;48.838;2.322;2023-03-16T08:56:49;2.20;;;2.10;;
819;SDS011;392;48.838;2.322;2023-03-16T08:59:17;2.20;;;2.07;;
819;SDS011;392;48.838;2.322;2023-03-16T09:01:44;3.00;;;2.80;;
819;SDS011;392;48.838;2.322;2023-03-16T09:04:12;3.27;;;2.60;;
819;SDS011;392;48.838;2.322;2023-03-16T09:06:39;2.67;;;2.47;;
819;SDS011;392;48.838;2.322;2023-03-16T09:09:06;2.97;;;2.70;;
819;SDS011;392;48.838;2.322;2023-03-16T09:11:35;3.00;;;2.80;;
819;SDS011;392;48.838;2.322;2023-03-16T09:14:03;3.03;;;2.83;;
819;SDS011;392;48.838;2.322;2023-03-16T09:16:31;3.07;;;2.87;;
819;SDS011;392;48.838;2.322;2023-03-16T09:18:59;3.33;;;2.70;;
819;SDS011;392;48.838;2.322;2023-03-16T09:21:27;4.20;;;3.80;;
819;SDS011;392;48.838;2.322;2023-03-16T09:23:55;2.60;;;2.40;;
819;SDS011;392;48.838;2.322;2023-03-16T09:26:23;3.43;;;3.13;;
819;SDS011;392;48.838;2.322;2023-03-16T09:28:50;3.33;;;2.63;;
819;SDS011;392;48.838;2.322;2023-03-16T09:31:20;3.17;;;2.93;;
819;SDS011;392;48.838;2.322;2023-03-16T09:33:47;3.17;;;2.97;;
819;SDS011;392;48.838;2.322;2023-03-16T09:36:14;3.80;;;3.10;;
819;SDS011;392;48.838;2.322;2023-03-16T09:38:42;3.40;;;2.60;;
819;SDS011;392;48.838;2.322;2023-03-16T09:41:14;2.87;;;2.67;;
819;SDS011;392;48.838;2.322;2023-03-16T09:43:59;2.77;;;2.57;;
819;SDS011;392;48.838;2.322;2023-03-16T09:46:38;2.37;;;2.17;;
819;SDS011;392;48.838;2.322;2023-03-16T09:49:09;2.83;;;2.60;;
819;SDS011;392;48.838;2.322;2023-03-16T09:51:41;2.80;;;2.37;;
819;SDS011;392;48.838;2.322;2023-03-16T09:54:17;2.13;;;2.03;;
819;SDS011;392;48.838;2.322;2023-03-16T09:56:52;2.73;;;2.13;;
819;SDS011;392;48.838;2.322;2023-03-16T09:59:21;2.63;;;2.47;;
819;SDS011;392;48.838;2.322;2023-03-16T10:02:05;2.50;;;2.30;;
819;SDS011;392;48.838;2.322;2023-03-16T10:05:06;2.30;;;2.07;;
819;SDS011;392;48.838;2.322;2023-03-16T10:07:38;3.40;;;2.23;;
819;SDS011;392;48.838;2.322;2023-03-16T10:10:19;2.37;;;2.23;;
819;SDS011;392;48.838;2.322;2023-03-16T10:13:02;2.33;;;2.23;;
819;SDS011;392;48.838;2.322;2023-03-16T10:15:42;2.40;;;2.20;;
819;SDS011;392;48.838;2.322;2023-03-16T10:18:13;2.63;;;2.40;;
819;SDS011;392;48.838;2.322;2023-03-16T10:20:45;3.80;;;2.23;;
819;SDS011;392;48.838;2.322;2023-03-16T10:23:15;2.03;;;1.93;;
819;SDS011;392;48.838;2.322;2023-03-16T10:25:47;2.90;;;2.60;;
819;SDS011;392;48.838;2.322;2023-03-16T10:28:17;3.80;;;2.70;;
819;SDS011;392;48.838;2.322;2023-03-16T10:30:47;4.10;;;3.03;;
819;SDS011;392;48.838;2.322;2023-03-16T10:33:20;9.60;;;7.13;;
819;SDS011;392;48.838;2.322;2023-03-16T10:35:51;4.10;;;2.90;;
819;SDS011;392;48.838;2.322;2023-03-16T10:38:27;2.60;;;2.50;;
819;SDS011;392;48.838;2.322;2023-03-16T10:41:03;3.40;;;2.47;;
819;SDS011;392;48.838;2.322;2023-03-16T10:43:48;2.90;;;2.63;;
819;SDS011;392;48.838;2.322;2023-03-16T10:46:17;3.07;;;2.40;;
819;SDS011;392;48.838;2.322;2023-03-16T10:48:51;3.27;;;2.40;;
819;SDS011;392;48.838;2.322;2023-03-16T10:51:24;2.73;;;2.50;;
819;SDS011;392;48.838;2.322;2023-03-16T10:53:56;4.10;;;2.83;;
819;SDS011;392;48.838;2.322;2023-03-16T10:56:34;3.50;;;3.20;;
819;SDS011;392;48.838;2.322;2023-03-16T10:59:11;5.17;;;3.80;;
819;SDS011;392;48.838;2.322;2023-03-16T11:01:43;4.23;;;3.83;;
819;SDS011;392;48.838;2.322;2023-03-16T11:04:17;3.07;;;2.87;;
819;SDS011;392;48.838;2.322;2023-03-16T11:06:51;3.40;;;3.10;;
819;SDS011;392;48.838;2.322;2023-03-16T11:09:24;2.57;;;2.47;;
819;SDS011;392;48.838;2.322;2023-03-16T11:11:57;3.83;;;2.63;;
819;SDS011;392;48.838;2.322;2023-03-16T11:14:26;4.43;;;4.03;;
819;SDS011;392;48.838;2.322;2023-03-16T11:16:58;3.30;;;3.10;;
819;SDS011;392;48.838;2.322;2023-03-16T11:19:31;3.37;;;3.10;;
819;SDS011;392;48.838;2.322;2023-03-16T11:22:03;5.10;;;3.10;;
819;SDS011;392;48.838;2.322;2023-03-16T11:24:39;3.60;;;3.40;;
819;SDS011;392;48.838;2.322;2023-03-16T11:27:14;4.33;;;4.00;;
819;SDS011;392;48.838;2.322;2023-03-16T11:29:51;4.27;;;3.87;;
819;SDS011;392;48.838;2.322;2023-03-16T11:32:31;4.03;;;3.60;;
819;SDS011;392;48.838;2.322;2023-03-16T11:35:06;4.10;;;3.70;;
819;SDS011;392;48.838;2.322;2023-03-16T11:37:45;3.40;;;3.20;;
819;SDS011;392;48.838;2.322;2023-03-16T11:40:28;3.57;;;3.47;;
819;SDS011;392;48.838;2.322;2023-03-16T11:43:12;3.63;;;3.43;;
819;SDS011;392;48.838;2.322;2023-03-16T11:46:13;3.40;;;3.10;;
819;SDS011;392;48.838;2.322;2023-03-16T11:48:45;3.87;;;3.63;;
819;SDS011;392;48.838;2.322;2023-03-16T11:51:30;3.20;;;3.00;;
819;SDS011;392;48.838;2.322;2023-03-16T11:54:10;4.17;;;3.83;;
819;SDS011;392;48.838;2.322;2023-03-16T11:57:02;4.67;;;3.73;;
819;SDS011;392;48.838;2.322;2023-03-16T11:59:46;3.77;;;3.47;;
819;SDS011;392;48.838;2.322;2023-03-16T12:02:32;4.23;;;4.03;;
819;SDS011;392;48.838;2.322;2023-03-16T12:05:19;4.37;;;3.97;;
819;SDS011;392;48.838;2.322;2023-03-16T12:08:06;3.83;;;3.73;;
819;SDS011;392;48.838;2.322;2023-03-16T12:10:48;4.47;;;4.13;;
819;SDS011;392;48.838;2.322;2023-03-16T12:13:25;6.50;;;4.70;;
819;SDS011;392;48.838;2.322;2023-03-16T12:16:03;4.63;;;4.30;;
819;SDS011;392;48.838;2.322;2023-03-16T12:18:37;4.37;;;4.17;;
819;SDS011;392;48.838;2.322;2023-03-16T12:21:10;6.40;;;6.00;;
819;SDS011;392;48.838;2.322;2023-03-16T12:23:47;4.93;;;4.63;;
819;SDS011;392;48.838;2.322;2023-03-16T12:26:18;4.20;;;4.00;;
819;SDS011;392;48.838;2.322;2023-03-16T12:28:49;4.60;;;4.30;;
819;SDS011;392;48.838;2.322;2023-03-16T12:31:18;4.00;;;3.83;;
819;SDS011;392;48.838;2.322;2023-03-16T12:36:53;4.60;;;4.40;;
819;SDS011;392;48.838;2.322;2023-03-16T12:39:50;5.50;;;5.00;;
819;SDS011;392;48.838;2.322;2023-03-16T12:42:51;5.23;;;5.03;;
819;SDS011;392;48.838;2.322;2023-03-16T12:45:32;5.47;;;5.07;;
819;SDS011;392;48.838;2.322;2023-03-16T12:48:10;4.20;;;4.00;;
819;SDS011;392;48.838;2.322;2023-03-16T12:50:46;3.40;;;3.20;;
819;SDS011;392;48.838;2.322;2023-03-16T12:53:28;3.80;;;3.50;;
819;SDS011;392;48.838;2.322;2023-03-16T12:56:12;3.30;;;3.10;;
819;SDS011;392;48.838;2.322;2023-03-16T12:58:43;2.80;;;2.60;;
819;SDS011;392;48.838;2.322;2023-03-16T13:01:13;3.43;;;3.23;;
819;SDS011;392;48.838;2.322;2023-03-16T13:03:45;3.47;;;3.27;;
819;SDS011;392;48.838;2.322;2023-03-16T13:06:19;3.53;;;3.10;;
819;SDS011;392;48.838;2.322;2023-03-16T13:08:50;4.47;;;4.07;;
819;SDS011;392;48.838;2.322;2023-03-16T13:11:25;3.20;;;3.00;;
819;SDS011;392;48.838;2.322;2023-03-16T13:14:03;2.80;;;2.70;;
819;SDS011;392;48.838;2.322;2023-03-16T13:16:37;3.33;;;3.13;;
819;SDS011;392;48.838;2.322;2023-03-16T13:19:22;3.20;;;3.00;;
819;SDS011;392;48.838;2.322;2023-03-16T13:22:00;3.00;;;2.80;;
819;SDS011;392;48.838;2.322;2023-03-16T13:24:48;3.40;;;3.20;;
819;SDS011;392;48.838;2.322;2023-03-16T13:27:21;3.13;;;2.93;;
819;SDS011;392;48.838;2.322;2023-03-16T13:29:53;2.17;;;2.07;;
819;SDS011;392;48.838;2.322;2023-03-16T13:32:23;2.67;;;2.47;;
819;SDS011;392;48.838;2.322;2023-03-16T13:34:56;2.77;;;2.63;;
819;SDS011;392;48.838;2.322;2023-03-16T13:37:26;2.93;;;2.70;;
819;SDS011;392;48.838;2.322;2023-03-16T13:39:55;3.33;;;3.00;;
819;SDS011;392;48.838;2.322;2023-03-16T13:42:27;3.70;;;3.50;;
819;SDS011;392;48.838;2.322;2023-03-16T13:44:57;3.33;;;3.13;;
819;SDS011;392;48.838;2.322;2023-03-16T13:47:40;2.80;;;2.70;;
819;SDS011;392;48.838;2.322;2023-03-16T13:50:09;3.33;;;3.17;;
819;SDS011;392;48.838;2.322;2023-03-16T13:52:39;2.80;;;2.70;;
819;SDS011;392;48.838;2.322;2023-03-16T13:55:13;3.27;;;2.80;;
819;SDS011;392;48.838;2.322;2023-03-16T13:57:43;2.73;;;2.53;;
819;SDS011;392;48.838;2.322;2023-03-16T14:00:13;3.27;;;3.07;;
819;SDS011;392;48.838;2.322;2023-03-16T14:02:44;3.53;;;3.30;;
819;SDS011;392;48.838;2.322;2023-03-16T14:05:16;3.13;;;2.93;;
819;SDS011;392;48.838;2.322;2023-03-16T14:07:46;3.20;;;3.10;;
819;SDS011;392;48.838;2.322;2023-03-16T14:10:16;2.87;;;2.77;;
819;SDS011;392;48.838;2.322;2023-03-16T14:12:51;3.47;;;2.70;;
819;SDS011;392;48.838;2.322;2023-03-16T14:15:20;2.30;;;2.20;;
819;SDS011;392;48.838;2.322;2023-03-16T14:17:50;2.53;;;2.43;;
819;SDS011;392;48.838;2.322;2023-03-16T14:20:19;2.53;;;2.33;;
819;SDS011;392;48.838;2.322;2023-03-16T14:22:50;2.93;;;2.73;;
819;SDS011;392;48.838;2.322;2023-03-16T14:25:19;2.20;;;2.10;;
819;SDS011;392;48.838;2.322;2023-03-16T14:27:57;2.40;;;2.30;;
819;SDS011;392;48.838;2.322;2023-03-16T14:30:27;2.43;;;2.33;;
819;SDS011;392;48.838;2.322;2023-03-16T14:32:57;2.30;;;2.20;;
819;SDS011;392;48.838;2.322;2023-03-16T14:35:27;2.90;;;1.87;;
819;SDS011;392;48.838;2.322;2023-03-16T14:37:56;2.23;;;2.13;;
819;SDS011;392;48.838;2.322;2023-03-16T14:40:50;3.17;;;2.40;;
819;SDS011;392;48.838;2.322;2023-03-16T14:43:20;3.57;;;2.90;;
819;SDS011;392;48.838;2.322;2023-03-16T14:45:54;2.20;;;2.03;;
819;SDS011;392;48.838;2.322;2023-03-16T14:48:23;2.50;;;2.40;;
819;SDS011;392;48.838;2.322;2023-03-16T14:50:52;2.20;;;2.10;;
819;SDS011;392;48.838;2.322;2023-03-16T14:53:22;2.20;;;2.03;;
819;SDS011;392;48.838;2.322;2023-03-16T14:55:52;3.53;;;2.40;;
819;SDS011;392;48.838;2.322;2023-03-16T14:58:22;2.23;;;2.13;;
819;SDS011;392;48.838;2.322;2023-03-16T15:00:50;2.70;;;2.60;;
819;SDS011;392;48.838;2.322;2023-03-16T15:03:18;2.53;;;2.27;;
819;SDS011;392;48.838;2.322;2023-03-16T15:05:48;5.07;;;4.60;;
819;SDS011;392;48.838;2.322;2023-03-16T15:08:18;2.30;;;2.20;;
819;SDS011;392;48.838;2.322;2023-03-16T15:10:51;3.07;;;2.87;;
819;SDS011;392;48.838;2.322;2023-03-16T15:13:21;2.93;;;2.70;;
819;SDS011;392;48.838;2.322;2023-03-16T15:16:17;2.70;;;2.60;;
819;SDS011;392;48.838;2.322;2023-03-16T15:18:46;3.03;;;2.63;;
819;SDS011;392;48.838;2.322;2023-03-16T15:21:13;3.70;;;2.77;;
819;SDS011;392;48.838;2.322;2023-03-16T15:23:43;3.10;;;2.80;;
819;SDS011;392;48.838;2.322;2023-03-16T15:26:11;2.60;;;2.50;;
819;SDS011;392;48.838;2.322;2023-03-16T15:28:42;2.90;;;2.70;;
819;SDS011;392;48.838;2.322;2023-03-16T15:31:10;3.27;;;2.70;;
819;SDS011;392;48.838;2.322;2023-03-16T15:33:40;4.20;;;3.10;;
819;SDS011;392;48.838;2.322;2023-03-16T15:36:11;3.77;;;3.47;;
819;SDS011;392;48.838;2.322;2023-03-16T15:38:42;4.00;;;2.77;;
819;SDS011;392;48.838;2.322;2023-03-16T15:41:11;2.77;;;2.57;;
819;SDS011;392;48.838;2.322;2023-03-16T15:43:39;3.57;;;2.77;;
819;SDS011;392;48.838;2.322;2023-03-16T15:46:08;4.40;;;2.90;;
819;SDS011;392;48.838;2.322;2023-03-16T15:48:36;2.70;;;2.60;;
819;SDS011;392;48.838;2.322;2023-03-16T15:51:05;3.40;;;3.10;;
819;SDS011;392;48.838;2.322;2023-03-16T15:53:37;4.40;;;4.00;;
819;SDS011;392;48.838;2.322;2023-03-16T15:56:09;2.63;;;2.53;;
819;SDS011;392;48.838;2.322;2023-03-16T15:58:42;4.20;;;3.90;;
819;SDS011;392;48.838;2.322;2023-03-16T16:01:16;3.53;;;2.80;;
819;SDS011;392;48.838;2.322;2023-03-16T16:03:48;3.17;;;2.90;;
819;SDS011;392;48.838;2.322;2023-03-16T16:06:16;4.50;;;3.67;;
819;SDS011;392;48.838;2.322;2023-03-16T16:08:43;3.90;;;2.80;;
819;SDS011;392;48.838;2.322;2023-03-16T16:11:12;2.77;;;2.57;;
819;SDS011;392;48.838;2.322;2023-03-16T16:13:43;2.67;;;2.47;;
819;SDS011;392;48.838;2.322;2023-03-16T16:16:11;2.90;;;2.70;;
819;SDS011;392;48.838;2.322;2023-03-16T16:18:43;2.77;;;2.57;;